createdAt,value
2017-07-18T00:00:46.487Z,6.47
2017-07-18T00:03:14.195Z,6.20
2017-07-18T00:05:41.732Z,6.90
2017-07-18T00:08:09.306Z,5.70
2017-07-18T00:10:36.857Z,6.50
2017-07-18T00:13:04.434Z,6.20
2017-07-18T00:15:31.969Z,5.93
2017-07-18T00:17:59.685Z,6.20
2017-07-18T00:20:27.222Z,5.65
2017-07-18T00:22:55.125Z,6.40
2017-07-18T00:25:23.434Z,6.40
2017-07-18T00:27:50.964Z,6.30
2017-07-18T00:30:19.610Z,7.00
2017-07-18T00:32:47.150Z,6.20
2017-07-18T00:35:14.689Z,6.68
2017-07-18T00:37:42.261Z,6.53
2017-07-18T00:40:09.830Z,6.37
2017-07-18T00:42:37.362Z,5.90
2017-07-18T00:45:05.702Z,6.00
2017-07-18T00:47:33.238Z,6.35
2017-07-18T00:50:01.065Z,6.43
2017-07-18T00:52:28.602Z,5.57
2017-07-18T00:54:56.142Z,6.07
2017-07-18T00:57:24.762Z,5.60
2017-07-18T00:59:53.065Z,6.05
2017-07-18T01:02:20.599Z,6.18
2017-07-18T01:04:48.316Z,6.05
2017-07-18T01:07:15.854Z,6.57
2017-07-18T01:09:43.433Z,6.22
2017-07-18T01:12:11.314Z,6.30
2017-07-18T01:14:38.846Z,6.72
2017-07-18T01:17:06.388Z,6.78
2017-07-18T01:19:34.141Z,5.93
2017-07-18T01:22:02.447Z,6.53
2017-07-18T01:24:29.986Z,5.75
2017-07-18T01:26:57.558Z,6.30
2017-07-18T01:29:25.490Z,6.30
2017-07-18T01:31:53.031Z,5.68
2017-07-18T01:34:20.569Z,6.22
2017-07-18T01:36:48.170Z,6.03
2017-07-18T01:39:15.710Z,5.68
2017-07-18T01:41:43.982Z,4.80
2017-07-18T01:44:11.515Z,5.60
2017-07-18T01:46:39.053Z,5.68
2017-07-18T01:49:13.240Z,5.70
2017-07-18T01:51:40.785Z,5.45
2017-07-18T01:54:08.754Z,4.85
2017-07-18T01:56:36.311Z,5.25
2017-07-18T01:59:04.019Z,5.65
2017-07-18T02:01:32.353Z,5.85
2017-07-18T02:03:59.961Z,5.70
2017-07-18T02:06:27.501Z,6.32
2017-07-18T02:08:55.833Z,5.62
2017-07-18T02:11:23.405Z,5.78
2017-07-18T02:13:50.950Z,6.53
2017-07-18T02:16:18.603Z,6.97
2017-07-18T02:18:46.141Z,6.53
2017-07-18T02:21:14.050Z,6.93
2017-07-18T02:23:41.585Z,6.60
2017-07-18T02:26:09.125Z,6.62
2017-07-18T02:28:37.857Z,6.20
2017-07-18T02:31:05.390Z,6.70
2017-07-18T02:33:32.964Z,6.82
2017-07-18T02:36:00.538Z,6.80
2017-07-18T02:38:28.238Z,6.45
2017-07-18T02:40:56.546Z,6.10
2017-07-18T02:43:24.098Z,7.12
2017-07-18T02:45:51.670Z,7.32
2017-07-18T02:48:19.214Z,7.20
2017-07-18T02:50:46.795Z,7.22
2017-07-18T02:53:14.338Z,7.05
2017-07-18T02:55:43.074Z,6.93
2017-07-18T02:58:10.756Z,6.93
2017-07-18T03:00:38.287Z,6.70
2017-07-18T03:03:06.164Z,6.90
2017-07-18T03:05:33.705Z,6.68
2017-07-18T03:08:01.250Z,6.70
2017-07-18T03:10:29.156Z,7.25
2017-07-18T03:12:56.689Z,6.70
2017-07-18T03:15:24.221Z,6.90
2017-07-18T03:17:51.794Z,6.95
2017-07-18T03:20:19.335Z,7.03
2017-07-18T03:22:46.982Z,7.15
2017-07-18T03:25:14.929Z,6.90
2017-07-18T03:27:42.470Z,6.55
2017-07-18T03:30:10.075Z,5.70
2017-07-18T03:32:37.650Z,6.50
2017-07-18T03:35:05.954Z,6.03
2017-07-18T03:37:37.425Z,6.70
2017-07-18T03:40:04.966Z,5.90
2017-07-18T03:42:32.549Z,5.95
2017-07-18T03:45:00.123Z,6.10
2017-07-18T03:47:27.759Z,6.90
2017-07-18T03:49:55.302Z,5.40
2017-07-18T03:52:23.163Z,6.18
2017-07-18T03:54:50.703Z,5.18
2017-07-18T03:57:19.151Z,4.55
2017-07-18T03:59:46.687Z,4.80
2017-07-18T04:02:14.226Z,5.18
2017-07-18T04:04:41.810Z,5.60
2017-07-18T04:07:09.352Z,4.80
2017-07-18T04:09:37.358Z,5.90
2017-07-18T04:12:04.896Z,5.12
2017-07-18T04:14:32.435Z,5.95
2017-07-18T04:17:00.009Z,5.47
2017-07-18T04:19:27.600Z,5.90
2017-07-18T04:21:55.129Z,5.60
2017-07-18T04:24:22.667Z,5.32
2017-07-18T04:26:51.003Z,5.00
2017-07-18T04:29:18.533Z,5.25
2017-07-18T04:31:46.105Z,5.62
2017-07-18T04:34:13.630Z,5.87
2017-07-18T04:36:41.200Z,5.70
2017-07-18T04:39:08.737Z,5.45
2017-07-18T04:41:37.148Z,5.10
2017-07-18T04:44:04.762Z,5.30
2017-07-18T04:46:32.604Z,6.00
2017-07-18T04:49:00.134Z,6.10
2017-07-18T04:51:27.670Z,5.45
2017-07-18T04:53:56.109Z,5.82
2017-07-18T04:56:24.177Z,5.53
2017-07-18T04:58:51.996Z,5.60
2017-07-18T05:01:19.525Z,5.95
2017-07-18T05:03:47.147Z,5.68
2017-07-18T05:06:18.632Z,5.40
2017-07-18T05:08:46.166Z,5.30
2017-07-18T05:11:13.701Z,5.50
2017-07-18T05:13:41.590Z,5.85
2017-07-18T05:16:09.130Z,5.62
2017-07-18T05:18:36.662Z,5.70
2017-07-18T05:21:05.507Z,5.97
2017-07-18T05:23:33.037Z,5.45
2017-07-18T05:26:00.585Z,5.43
2017-07-18T05:28:29.119Z,5.78
2017-07-18T05:30:56.694Z,5.65
2017-07-18T05:33:24.230Z,5.55
2017-07-18T05:35:51.827Z,5.80
2017-07-18T05:38:19.363Z,5.70
2017-07-18T05:40:46.923Z,5.40
2017-07-18T05:43:20.005Z,6.12
2017-07-18T05:45:47.538Z,5.80
2017-07-18T05:48:15.066Z,5.62
2017-07-18T05:50:43.920Z,5.40
2017-07-18T05:53:11.456Z,6.10
2017-07-18T05:55:38.985Z,5.70
2017-07-18T05:58:07.630Z,5.85
2017-07-18T06:00:35.207Z,5.90
2017-07-18T06:03:02.786Z,5.65
2017-07-18T06:05:31.089Z,5.30
2017-07-18T06:07:58.666Z,5.10
2017-07-18T06:10:26.193Z,5.20
2017-07-18T06:12:53.770Z,5.00
2017-07-18T06:15:21.301Z,5.70
2017-07-18T06:17:49.637Z,5.60
2017-07-18T06:20:17.168Z,5.30
2017-07-18T06:22:44.702Z,4.82
2017-07-18T06:25:13.398Z,5.95
2017-07-18T06:27:40.938Z,5.37
2017-07-18T06:30:09.239Z,4.82
2017-07-18T06:32:36.899Z,5.20
2017-07-18T06:35:04.817Z,5.32
2017-07-18T06:37:32.349Z,5.43
2017-07-18T06:39:59.887Z,4.90
2017-07-18T06:42:27.470Z,5.18
2017-07-18T06:44:55.061Z,4.30
2017-07-18T06:47:22.603Z,5.35
2017-07-18T06:49:50.487Z,5.45
2017-07-18T06:52:18.162Z,5.07
2017-07-18T06:54:45.698Z,5.30
2017-07-18T06:57:13.275Z,4.95
2017-07-18T06:59:41.153Z,5.18
2017-07-18T07:02:08.687Z,5.20
2017-07-18T07:04:36.223Z,5.22
2017-07-18T07:07:04.168Z,5.03
2017-07-18T07:09:32.465Z,4.37
2017-07-18T07:12:00.007Z,4.80
2017-07-18T07:14:27.751Z,5.18
2017-07-18T07:16:55.286Z,4.60
2017-07-18T07:19:22.843Z,4.90
2017-07-18T07:21:50.420Z,4.78
2017-07-18T07:24:18.008Z,5.10
2017-07-18T07:26:45.553Z,5.15
2017-07-18T07:29:13.899Z,4.80
2017-07-18T07:31:41.489Z,4.80
2017-07-18T07:34:09.034Z,4.43
2017-07-18T07:36:36.686Z,4.53
2017-07-18T07:39:04.240Z,4.68
2017-07-18T07:41:31.821Z,4.78
2017-07-18T07:43:59.399Z,4.97
2017-07-18T07:46:27.751Z,4.63
2017-07-18T07:48:55.293Z,4.30
2017-07-18T07:51:22.882Z,5.10
2017-07-18T07:53:51.224Z,4.40
2017-07-18T07:59:13.365Z,4.30
2017-07-18T08:01:40.908Z,4.40
2017-07-18T08:04:08.526Z,4.00
2017-07-18T08:06:36.078Z,4.37
2017-07-18T08:09:03.652Z,4.23
2017-07-18T08:11:31.198Z,3.90
2017-07-18T08:13:58.738Z,4.30
2017-07-18T08:16:26.318Z,4.20
2017-07-18T08:18:53.848Z,4.13
2017-07-18T08:21:21.422Z,4.20
2017-07-18T08:23:48.998Z,4.17
2017-07-18T08:26:16.533Z,4.43
2017-07-18T08:28:49.245Z,3.70
2017-07-18T08:31:16.781Z,4.30
2017-07-18T08:33:44.325Z,3.90
2017-07-18T08:36:12.234Z,3.77
2017-07-18T08:38:39.774Z,4.50
2017-07-18T08:41:07.313Z,4.13
2017-07-18T08:43:34.885Z,4.10
2017-07-18T08:46:02.413Z,3.87
2017-07-18T08:48:29.992Z,3.83
2017-07-18T08:50:57.539Z,3.67
2017-07-18T08:53:25.961Z,3.87
2017-07-18T08:55:56.293Z,3.63
2017-07-18T08:58:23.846Z,3.43
2017-07-18T09:00:51.390Z,4.03
2017-07-18T09:03:18.974Z,3.90
2017-07-18T09:05:46.518Z,3.83
2017-07-18T09:08:14.415Z,3.73
2017-07-18T09:10:41.957Z,3.30
2017-07-18T09:13:09.498Z,3.70
2017-07-18T09:15:37.076Z,3.80
2017-07-18T09:18:09.571Z,4.00
2017-07-18T09:20:37.106Z,3.43
2017-07-18T09:23:07.346Z,3.57
2017-07-18T09:25:34.878Z,3.57
2017-07-18T09:28:02.449Z,3.83
2017-07-18T09:30:29.994Z,3.53
2017-07-18T09:32:57.899Z,3.80
2017-07-18T09:35:25.761Z,3.67
2017-07-18T09:37:53.299Z,4.10
2017-07-18T09:40:20.829Z,4.00
2017-07-18T09:42:48.697Z,3.67
2017-07-18T09:45:18.648Z,4.40
2017-07-18T09:47:46.200Z,4.20
2017-07-18T09:50:14.057Z,3.87
2017-07-18T09:52:41.644Z,3.50
2017-07-18T09:55:09.195Z,3.93
2017-07-18T09:57:36.784Z,3.90
2017-07-18T10:00:05.158Z,3.80
2017-07-18T10:02:32.700Z,3.60
2017-07-18T10:05:00.231Z,3.33
2017-07-18T10:07:28.034Z,3.80
2017-07-18T10:09:55.874Z,3.30
2017-07-18T10:12:23.420Z,3.80
2017-07-18T10:14:50.962Z,2.80
2017-07-18T10:17:19.329Z,3.20
2017-07-18T10:19:46.887Z,3.30
2017-07-18T10:22:14.430Z,3.37
2017-07-18T10:24:42.165Z,3.33
2017-07-18T10:27:09.694Z,3.10
2017-07-18T10:29:38.050Z,3.27
2017-07-18T10:32:06.019Z,3.63
2017-07-18T10:34:33.563Z,3.00
2017-07-18T10:37:01.106Z,3.40
2017-07-18T10:39:28.990Z,3.17
2017-07-18T10:41:56.534Z,3.20
2017-07-18T10:44:24.574Z,2.77
2017-07-18T10:46:52.122Z,3.03
2017-07-18T10:49:20.438Z,2.70
2017-07-18T10:51:48.026Z,3.37
2017-07-18T10:54:15.613Z,3.90
2017-07-18T10:56:43.926Z,3.43
2017-07-18T10:59:11.689Z,3.30
2017-07-18T11:01:39.371Z,3.20
2017-07-18T11:04:06.913Z,3.27
2017-07-18T11:06:34.778Z,3.23
2017-07-18T11:09:02.339Z,3.20
2017-07-18T11:11:29.881Z,3.40
2017-07-18T11:14:03.300Z,2.60
2017-07-18T11:16:30.835Z,2.83
2017-07-18T11:18:59.137Z,2.53
2017-07-18T11:21:26.856Z,2.60
2017-07-18T11:23:54.394Z,3.10
2017-07-18T11:26:21.977Z,2.80
2017-07-18T11:28:49.506Z,2.53
2017-07-18T11:31:17.089Z,2.40
2017-07-18T11:33:44.626Z,2.73
2017-07-18T11:36:12.403Z,2.90
2017-07-18T11:38:39.944Z,2.60
2017-07-18T11:41:07.473Z,2.70
2017-07-18T11:43:40.891Z,3.00
2017-07-18T11:46:08.438Z,3.23
2017-07-18T11:48:35.974Z,3.60
2017-07-18T11:51:04.621Z,2.97
2017-07-18T11:53:32.150Z,2.90
2017-07-18T11:55:59.685Z,3.10
2017-07-18T11:58:28.428Z,3.27
2017-07-18T12:00:56.029Z,3.00
2017-07-18T12:03:24.329Z,3.53
2017-07-18T12:05:51.926Z,2.90
2017-07-18T12:08:19.458Z,3.10
2017-07-18T12:10:46.993Z,3.20
2017-07-18T12:13:20.451Z,3.00
2017-07-18T12:15:47.985Z,2.80
2017-07-18T12:18:38.372Z,2.80
2017-07-18T12:21:05.913Z,3.07
2017-07-18T12:23:34.526Z,2.77
2017-07-18T12:26:02.063Z,2.80
2017-07-18T12:28:29.603Z,3.33
2017-07-18T12:30:57.573Z,3.37
2017-07-18T12:33:25.151Z,2.70
2017-07-18T12:35:52.687Z,2.90
2017-07-18T12:38:20.288Z,3.03
2017-07-18T12:40:47.823Z,3.37
2017-07-18T12:43:16.125Z,3.17
2017-07-18T12:45:43.765Z,3.30
2017-07-18T12:48:12.062Z,3.43
2017-07-18T12:50:40.050Z,3.27
2017-07-18T12:53:07.576Z,3.10
2017-07-18T12:55:35.876Z,2.87
2017-07-18T12:58:03.762Z,3.67
2017-07-18T13:00:31.502Z,3.20
2017-07-18T13:02:59.045Z,3.20
2017-07-18T13:05:27.381Z,3.20
2017-07-18T13:07:54.916Z,2.73
2017-07-18T13:10:27.718Z,2.83
2017-07-18T13:12:55.690Z,3.23
2017-07-18T13:15:23.222Z,3.00
2017-07-18T13:17:50.761Z,3.07
2017-07-18T13:20:18.399Z,3.27
2017-07-18T13:22:45.977Z,3.07
2017-07-18T13:25:14.278Z,3.00
2017-07-18T13:27:42.026Z,2.60
2017-07-18T13:30:09.566Z,2.43
2017-07-18T13:32:38.068Z,2.93
2017-07-18T13:35:05.602Z,2.63
2017-07-18T13:37:33.194Z,2.80
2017-07-18T13:40:00.736Z,2.80
2017-07-18T13:42:28.270Z,2.57
2017-07-18T13:44:55.949Z,2.70
2017-07-18T13:47:23.519Z,2.60
2017-07-18T13:49:51.070Z,2.80
2017-07-18T13:52:18.769Z,2.77
2017-07-18T13:54:46.385Z,2.47
2017-07-18T13:57:13.925Z,2.83
2017-07-18T13:59:41.909Z,2.53
2017-07-18T14:02:09.441Z,2.77
2017-07-18T14:04:36.982Z,2.60
2017-07-18T14:07:05.187Z,2.33
2017-07-18T14:09:32.717Z,2.37
2017-07-18T14:12:00.251Z,2.30
2017-07-18T14:14:28.599Z,2.37
2017-07-18T14:16:56.142Z,2.57
2017-07-18T14:19:23.978Z,2.70
2017-07-18T14:21:51.509Z,2.63
2017-07-18T14:24:19.058Z,2.40
2017-07-18T14:26:47.482Z,2.50
2017-07-18T14:29:15.019Z,2.87
2017-07-18T14:31:43.352Z,2.70
2017-07-18T14:34:10.998Z,2.67
2017-07-18T14:36:38.567Z,2.50
2017-07-18T14:39:06.171Z,3.10
2017-07-18T14:41:34.469Z,2.73
2017-07-18T14:44:02.002Z,2.80
2017-07-18T14:46:29.730Z,2.60
2017-07-18T14:48:57.305Z,2.53
2017-07-18T14:51:24.842Z,2.87
2017-07-18T14:53:52.723Z,2.60
2017-07-18T14:56:20.252Z,2.60
2017-07-18T14:58:47.782Z,2.80
2017-07-18T15:01:17.017Z,2.50
2017-07-18T15:03:44.548Z,2.50
2017-07-18T15:06:12.846Z,2.73
2017-07-18T15:08:40.412Z,2.47
2017-07-18T15:11:07.941Z,2.63
2017-07-18T15:13:36.300Z,2.70
2017-07-18T15:16:03.844Z,2.90
2017-07-18T15:18:36.417Z,2.67
2017-07-18T15:21:03.949Z,2.60
2017-07-18T15:23:31.525Z,2.50
2017-07-18T15:25:59.063Z,2.50
2017-07-18T15:28:26.711Z,3.00
2017-07-18T15:30:54.421Z,2.63
2017-07-18T15:33:21.958Z,2.50
2017-07-18T15:35:54.718Z,2.90
2017-07-18T15:38:22.260Z,2.60
2017-07-18T15:40:50.644Z,2.60
2017-07-18T15:43:18.182Z,2.63
2017-07-18T15:45:45.721Z,2.70
2017-07-18T15:48:13.295Z,2.80
2017-07-18T15:50:40.834Z,2.80
2017-07-18T15:53:08.919Z,2.90
2017-07-18T15:55:36.452Z,2.70
2017-07-18T15:58:03.989Z,2.27
2017-07-18T16:00:31.571Z,3.00
2017-07-18T16:02:59.448Z,2.57
2017-07-18T16:05:26.985Z,2.87
2017-07-18T16:07:54.814Z,2.73
2017-07-18T16:10:22.362Z,2.63
2017-07-18T16:12:50.289Z,2.80
2017-07-18T16:15:17.820Z,2.40
2017-07-18T16:17:46.123Z,2.53
2017-07-18T16:20:13.707Z,2.80
2017-07-18T16:22:41.381Z,2.83
2017-07-18T16:25:08.961Z,2.40
2017-07-18T16:27:36.506Z,2.70
2017-07-18T16:30:04.366Z,2.70
2017-07-18T16:32:31.895Z,2.90
2017-07-18T16:34:59.472Z,2.60
2017-07-18T16:37:27.004Z,2.73
2017-07-18T16:39:54.573Z,2.70
2017-07-18T16:42:22.101Z,2.60
2017-07-18T16:44:49.681Z,2.50
2017-07-18T16:47:17.211Z,2.70
2017-07-18T16:49:44.922Z,2.33
2017-07-18T16:52:12.467Z,2.50
2017-07-18T16:54:40.011Z,2.73
2017-07-18T16:57:08.413Z,2.60
2017-07-18T16:59:35.950Z,2.53
2017-07-18T17:02:04.253Z,2.37
2017-07-18T17:04:32.131Z,2.60
2017-07-18T17:07:00.975Z,2.97
2017-07-18T17:09:28.513Z,2.90
2017-07-18T17:11:56.051Z,2.60
2017-07-18T17:14:23.646Z,2.97
2017-07-18T17:16:51.506Z,2.37
2017-07-18T17:19:19.209Z,2.80
2017-07-18T17:21:47.553Z,2.70
2017-07-18T17:24:15.326Z,3.10
2017-07-18T17:26:43.747Z,2.73
2017-07-18T17:29:11.428Z,2.90
2017-07-18T17:31:39.626Z,2.93
2017-07-18T17:34:07.175Z,3.20
2017-07-18T17:36:34.734Z,2.67
2017-07-18T17:39:02.981Z,2.70
2017-07-18T17:41:30.639Z,3.00
2017-07-18T17:44:00.719Z,2.70
2017-07-18T17:46:28.582Z,3.17
2017-07-18T17:48:59.155Z,2.97
2017-07-18T17:51:26.794Z,2.70
2017-07-18T17:53:54.421Z,3.13
2017-07-18T17:56:22.389Z,2.90
2017-07-18T17:58:49.936Z,2.80
2017-07-18T18:01:17.503Z,3.40
2017-07-18T18:03:50.199Z,2.80
2017-07-18T18:06:17.734Z,3.10
2017-07-18T18:08:45.288Z,3.20
2017-07-18T18:11:12.896Z,3.13
2017-07-18T18:13:40.456Z,3.90
2017-07-18T18:16:08.115Z,3.63
2017-07-18T18:18:35.681Z,3.80
2017-07-18T18:21:03.228Z,3.20
2017-07-18T18:23:30.960Z,3.33
2017-07-18T18:25:58.650Z,3.60
2017-07-18T18:28:26.191Z,3.43
2017-07-18T18:30:53.740Z,3.07
2017-07-18T18:33:22.130Z,3.67
2017-07-18T18:35:49.673Z,3.60
2017-07-18T18:38:17.297Z,3.40
2017-07-18T18:40:45.619Z,3.17
2017-07-18T18:43:13.172Z,3.20
2017-07-18T18:45:40.763Z,2.90
2017-07-18T18:48:09.771Z,3.70
2017-07-18T18:50:37.314Z,3.33
2017-07-18T18:53:04.903Z,3.10
2017-07-18T18:55:32.451Z,3.27
2017-07-18T18:57:59.985Z,3.30
2017-07-18T19:00:27.567Z,3.23
2017-07-18T19:02:59.069Z,3.30
2017-07-18T19:05:28.018Z,3.20
2017-07-18T19:07:55.562Z,3.40
2017-07-18T19:10:23.107Z,3.87
2017-07-18T19:12:50.814Z,3.67
2017-07-18T19:15:18.409Z,3.50
2017-07-18T19:17:45.970Z,3.63
2017-07-18T19:20:13.566Z,3.77
2017-07-18T19:22:41.149Z,3.67
2017-07-18T19:25:08.690Z,3.63
2017-07-18T19:27:36.287Z,3.93
2017-07-18T19:30:03.830Z,3.87
2017-07-18T19:32:31.487Z,3.70
2017-07-18T19:34:59.388Z,4.07
2017-07-18T19:37:27.707Z,3.93
2017-07-18T19:39:55.546Z,3.83
2017-07-18T19:42:23.089Z,3.80
2017-07-18T19:44:50.713Z,4.23
2017-07-18T19:47:18.401Z,4.00
2017-07-18T19:49:45.934Z,4.13
2017-07-18T19:52:13.519Z,4.07
2017-07-18T19:54:41.066Z,4.00
2017-07-18T19:57:08.650Z,3.87
2017-07-18T19:59:36.497Z,4.27
2017-07-18T20:02:04.049Z,4.10
2017-07-18T20:04:31.927Z,4.03
2017-07-18T20:07:00.759Z,4.53
2017-07-18T20:09:28.367Z,4.00
2017-07-18T20:11:56.346Z,4.53
2017-07-18T20:14:23.918Z,3.93
2017-07-18T20:16:52.312Z,4.60
2017-07-18T20:19:25.014Z,5.77
2017-07-18T20:21:52.578Z,4.40
2017-07-18T20:24:20.126Z,4.17
2017-07-18T20:26:48.955Z,4.73
2017-07-18T20:29:16.537Z,4.20
2017-07-18T20:31:44.237Z,4.70
2017-07-18T20:34:12.708Z,3.90
2017-07-18T20:36:40.248Z,4.57
2017-07-18T20:39:07.877Z,4.47
2017-07-18T20:41:35.453Z,4.47
2017-07-18T20:44:03.153Z,4.47
2017-07-18T20:46:31.460Z,4.30
2017-07-18T20:48:59.333Z,4.80
2017-07-18T20:51:26.893Z,4.33
2017-07-18T20:53:54.739Z,4.37
2017-07-18T20:56:22.657Z,4.90
2017-07-18T20:58:50.201Z,4.90
2017-07-18T21:01:17.746Z,4.90
2017-07-18T21:03:45.751Z,4.90
2017-07-18T21:06:13.295Z,4.53
2017-07-18T21:08:40.863Z,4.77
2017-07-18T21:11:08.469Z,5.07
2017-07-18T21:13:36.054Z,4.60
2017-07-18T21:16:03.594Z,4.77
2017-07-18T21:18:31.985Z,4.70
2017-07-18T21:20:59.569Z,4.70
2017-07-18T21:23:27.109Z,4.80
2017-07-18T21:25:54.787Z,5.10
2017-07-18T21:28:22.330Z,4.93
2017-07-18T21:30:50.234Z,5.13
2017-07-18T21:33:17.769Z,5.00
2017-07-18T21:35:45.305Z,5.20
2017-07-18T21:38:13.713Z,5.03
2017-07-18T21:40:41.263Z,5.00
2017-07-18T21:43:08.926Z,4.70
2017-07-18T21:45:36.461Z,4.90
2017-07-18T21:48:04.812Z,5.50
2017-07-18T21:50:32.350Z,4.93
2017-07-18T21:53:00.230Z,5.20
2017-07-18T21:55:28.365Z,5.70
2017-07-18T21:57:55.909Z,5.33
2017-07-18T22:00:23.670Z,5.40
2017-07-18T22:02:51.230Z,5.90
2017-07-18T22:05:18.765Z,5.70
2017-07-18T22:07:46.350Z,5.90
2017-07-18T22:10:13.949Z,5.87
2017-07-18T22:12:41.489Z,5.67
2017-07-18T22:15:09.031Z,5.90
2017-07-18T22:17:36.797Z,5.70
2017-07-18T22:20:04.704Z,6.23
2017-07-18T22:22:32.273Z,6.27
2017-07-18T22:24:59.818Z,6.57
2017-07-18T22:27:27.393Z,6.30
2017-07-18T22:29:54.930Z,6.00
2017-07-18T22:32:22.939Z,6.20
2017-07-18T22:34:50.475Z,6.83
2017-07-18T22:37:18.010Z,6.57
2017-07-18T22:39:46.890Z,6.37
2017-07-18T22:42:14.503Z,7.00
2017-07-18T22:44:42.036Z,7.00
2017-07-18T22:47:09.578Z,6.53
2017-07-18T22:49:38.129Z,7.20
2017-07-18T22:52:06.074Z,6.97
2017-07-18T22:54:34.714Z,6.90
2017-07-18T22:57:02.254Z,7.37
2017-07-18T22:59:30.599Z,7.70
2017-07-18T23:01:58.572Z,6.70
2017-07-18T23:04:26.101Z,7.43
2017-07-18T23:06:53.629Z,7.50
2017-07-18T23:09:21.366Z,7.20
2017-07-18T23:11:48.967Z,7.93
2017-07-18T23:14:16.506Z,8.10
2017-07-18T23:16:44.041Z,7.80
2017-07-18T23:19:11.614Z,7.80
2017-07-18T23:21:39.160Z,7.90
2017-07-18T23:24:06.738Z,8.43
2017-07-18T23:26:34.277Z,7.80
2017-07-18T23:29:02.250Z,8.40
2017-07-18T23:31:29.781Z,7.90
2017-07-18T23:33:57.318Z,8.70
2017-07-18T23:36:24.892Z,8.27
2017-07-18T23:38:52.430Z,8.60
2017-07-18T23:41:20.064Z,8.70
2017-07-18T23:43:47.766Z,8.77
2017-07-18T23:46:15.306Z,9.10
2017-07-18T23:48:42.910Z,8.20
2017-07-18T23:51:10.442Z,8.43
2017-07-18T23:53:39.182Z,8.63
2017-07-18T23:56:06.862Z,8.10
2017-07-18T23:58:34.397Z,8.53
